Stations météo

réclame
Mon MeteoGroup
Andujar, Espagne (8347): Température de l'air & dewpoint: 17.01.2018 08:00:00 - 23.01.2018 08:00:00 (CET)Andujar, Espagne (8347): Vitesse du vent & gusts: 17.01.2018 08:00:00 - 23.01.2018 08:00:00 (CET)Andujar, Espagne (8347): Direction du vent: 17.01.2018 08:00:00 - 23.01.2018 08:00:00 (CET)Andujar, Espagne (8347): reduced air pressure: 17.01.2018 08:00:00 - 23.01.2018 08:00:00 (CET)Andujar, Espagne (8347): Quantités de précipitations: 17.01.2018 08:00:00 - 23.01.2018 08:00:00 (CET)
Date & Time tt [°C] td [°C] ff [km/h] ff [knt] fx [km/h] fx [knt] dd ppp [hPa] rr [mm]
23.01.2018 08:00:00 2,5 0,0 1 1 5 3 ESE 1028,3 0,0
23.01.2018 07:00:00 2,4 -0,3 3 2 6 4 E 1027,9 -
23.01.2018 06:00:00 2,3 -0,3 0 0 5 3 N 1027,8 0,0
23.01.2018 05:00:00 2,3 -0,5 1 1 5 3 ESE 1028,0 0,0
23.01.2018 04:00:00 3,1 0,4 0 0 0 0 N 1028,4 0,0
23.01.2018 03:00:00 2,6 -0,3 0 0 5 3 ESE 1028,2 0,0
23.01.2018 02:00:00 3,4 0,4 3 2 4 2 E 1028,2 0,0
23.01.2018 01:00:00 4,5 1,5 1 0 5 3 SSE 1028,3 -
23.01.2018 00:00:00 5,2 2,3 4 2 8 4 ESE 1028,4 0,0
22.01.2018 23:00:00 5,9 2,7 1 1 5 3 E 1028,1 0,0
22.01.2018 22:00:00 6,7 2,9 0 0 4 2 N 1027,7 0,0
22.01.2018 21:00:00 8,0 3,8 3 2 5 3 E 1027,3 0,0
22.01.2018 20:00:00 9,0 3,2 0 0 5 3 SSW 1026,9 0,0
22.01.2018 19:00:00 11,6 3,4 3 2 6 3 SW 1026,2 -
22.01.2018 18:00:00 15,5 1,7 3 2 5 3 WSW 1025,6 0,0
22.01.2018 17:00:00 19,5 1,9 1 1 4 2 N 1025,2 0,0
22.01.2018 16:00:00 19,2 2,1 2 1 5 3 SSE 1025,3 0,0
22.01.2018 15:00:00 17,5 2,3 2 1 8 5 NE 1026,1 0,0
22.01.2018 14:00:00 15,9 2,7 3 2 10 5 ESE 1027,1 0,0
22.01.2018 13:00:00 13,1 4,5 3 2 9 5 E 1028,5 -
22.01.2018 12:00:00 9,7 6,8 0 0 4 2 ESE 1029,8 0,0
22.01.2018 11:00:00 4,6 1,9 0 0 4 2 SW 1031,0 0,0
22.01.2018 10:00:00 3,0 0,4 2 1 5 3 SE 1030,9 0,0
22.01.2018 09:00:00 2,6 -0,3 1 0 4 2 SE 1030,8 0,0
22.01.2018 08:00:00 2,2 -0,5 0 0 3 1 N 1030,5 0,0
22.01.2018 07:00:00 2,2 -0,5 0 0 6 3 N 1030,2 -
22.01.2018 06:00:00 1,0 -1,7 3 1 5 3 W 1030,0 0,0
22.01.2018 05:00:00 2,0 -0,7 0 0 2 1 N 1030,0 0,0
22.01.2018 04:00:00 3,4 0,6 1 1 5 3 ESE 1030,4 0,0
22.01.2018 03:00:00 3,2 0,2 0 0 8 4 SSE 1030,5 0,0
22.01.2018 02:00:00 3,5 0,6 2 1 6 3 SSE 1030,7 0,0
22.01.2018 01:00:00 4,1 1,1 0 0 0 0 N 1030,8 -
22.01.2018 00:00:00 5,0 1,9 0 0 5 3 SE 1030,9 0,0
21.01.2018 23:00:00 6,0 2,7 3 1 6 4 ESE 1030,6 0,0
21.01.2018 22:00:00 7,0 3,2 2 1 7 4 NW 1030,3 0,0
21.01.2018 21:00:00 6,8 2,7 1 1 5 3 SE 1030,1 0,0
21.01.2018 20:00:00 8,7 3,8 4 2 6 3 W 1029,7 0,0
21.01.2018 19:00:00 9,6 2,7 0 0 6 3 SSW 1029,0 -
21.01.2018 18:00:00 13,2 1,9 4 2 7 4 W 1028,2 0,0
21.01.2018 17:00:00 16,0 2,7 2 1 9 5 N 1027,7 0,0
21.01.2018 16:00:00 16,6 2,9 1 1 10 5 ESE 1027,8 0,0
21.01.2018 15:00:00 15,0 2,9 1 1 7 4 ENE 1028,4 0,0
21.01.2018 14:00:00 13,8 5,0 1 0 10 5 E 1029,5 0,0
21.01.2018 13:00:00 10,7 6,7 7 4 14 7 SSE 1031,1 -
21.01.2018 12:00:00 7,8 5,0 3 2 8 5 E 1032,4 0,0
21.01.2018 11:00:00 5,2 2,3 0 0 0 0 N 1032,7 0,0
21.01.2018 10:00:00 4,2 1,5 0 0 0 0 N 1032,2 0,0
21.01.2018 09:00:00 3,1 0,4 0 0 0 0 N 1031,5 0,0
21.01.2018 08:00:00 2,7 0,0 0 0 0 0 N 1031,3 0,0
21.01.2018 07:00:00 2,3 -0,5 0 0 0 0 N 1030,8 -
21.01.2018 06:00:00 1,1 -1,7 0 0 4 2 N 1030,5 0,0
21.01.2018 05:00:00 1,9 -1,0 0 0 5 3 N 1030,6 0,0
21.01.2018 04:00:00 2,2 -0,5 1 0 7 4 E 1030,5 0,0
21.01.2018 03:00:00 2,8 0,0 2 1 4 2 ESE 1030,5 0,0
21.01.2018 02:00:00 3,6 0,6 0 0 0 0 N 1030,5 0,0
21.01.2018 01:00:00 - - - - - - - - -
21.01.2018 00:00:00 4,5 1,3 0 0 5 3 NW 1030,9 0,0
20.01.2018 23:00:00 5,7 1,9 0 0 0 0 N 1030,5 0,0
20.01.2018 22:00:00 6,1 2,1 0 0 5 3 E 1030,1 0,0
20.01.2018 21:00:00 7,5 2,7 0 0 14 8 SW 1029,8 0,0
20.01.2018 20:00:00 10,0 3,4 11 6 14 8 W 1028,7 0,0
20.01.2018 19:00:00 10,9 2,5 6 3 14 7 WSW 1027,6 -
20.01.2018 18:00:00 14,3 1,3 8 4 14 8 W 1026,8 0,0
20.01.2018 17:00:00 17,0 1,5 9 5 14 8 W 1026,5 0,0
20.01.2018 16:00:00 16,9 1,3 2 1 11 6 WNW 1026,3 0,0
20.01.2018 15:00:00 16,1 1,1 3 2 8 4 W 1026,8 0,0
20.01.2018 14:00:00 13,2 2,1 3 1 6 4 SW 1028,0 0,0
20.01.2018 13:00:00 12,2 3,2 1 0 11 6 E 1029,1 -
20.01.2018 12:00:00 7,9 4,5 5 3 9 5 E 1030,2 0,0
20.01.2018 11:00:00 5,1 2,5 0 0 4 2 ENE 1030,8 0,0
20.01.2018 10:00:00 1,3 -1,2 0 0 0 0 N 1030,7 0,0
20.01.2018 09:00:00 0,5 -2,0 0 0 0 0 N 1030,0 0,0
20.01.2018 08:00:00 0,8 -1,7 0 0 0 0 N 1029,2 0,0
20.01.2018 07:00:00 0,0 -2,5 0 0 6 4 N 1028,3 -
20.01.2018 06:00:00 0,7 -2,0 3 2 6 3 ESE 1027,7 0,0
20.01.2018 05:00:00 1,6 -1,2 2 1 5 3 E 1027,4 0,0
20.01.2018 04:00:00 1,9 -1,0 1 1 6 3 WSW 1027,4 0,0
20.01.2018 03:00:00 2,2 -0,7 0 0 3 2 N 1027,4 0,0
20.01.2018 02:00:00 3,0 0,0 1 1 7 4 ESE 1026,8 0,0
20.01.2018 01:00:00 - - - - - - - - -
20.01.2018 00:00:00 4,2 0,9 0 0 0 0 N 1026,3 0,0
19.01.2018 23:00:00 5,2 1,5 0 0 5 3 E 1025,8 0,0
19.01.2018 22:00:00 6,3 2,1 2 1 6 4 ESE 1025,0 0,0
19.01.2018 21:00:00 7,0 1,7 2 1 6 4 WNW 1024,0 0,0
19.01.2018 20:00:00 8,6 1,7 0 0 4 2 SW 1023,3 0,0
19.01.2018 19:00:00 9,8 0,9 1 1 6 3 W 1022,0 -
19.01.2018 18:00:00 14,0 -0,5 4 2 10 5 WSW 1020,5 0,0
19.01.2018 17:00:00 18,1 -0,7 3 2 9 5 W 1019,8 0,0
19.01.2018 16:00:00 - - - - - - - - -
19.01.2018 15:00:00 - - - - - - - - -
19.01.2018 14:00:00 - - - - - - - - -
19.01.2018 13:00:00 - - - - - - - - -
19.01.2018 12:00:00 - - - - - - - - -
19.01.2018 11:00:00 - - - - - - - - -
19.01.2018 10:00:00 - - - - - - - - -
19.01.2018 09:00:00 - - - - - - - - -
19.01.2018 08:00:00 - - - - - - - - -
19.01.2018 07:00:00 - - - - - - - - -
19.01.2018 06:00:00 - - - - - - - - -
19.01.2018 05:00:00 - - - - - - - - -
19.01.2018 04:00:00 - - - - - - - - -
19.01.2018 03:00:00 - - - - - - - - -
19.01.2018 02:00:00 - - - - - - - - -
19.01.2018 01:00:00 - - - - - - - - -
19.01.2018 00:00:00 - - - - - - - - -
18.01.2018 23:00:00 - - - - - - - - -
18.01.2018 22:00:00 - - - - - - - - -
18.01.2018 21:00:00 - - - - - - - - -
18.01.2018 20:00:00 - - - - - - - - -
18.01.2018 19:00:00 - - - - - - - - -
18.01.2018 18:00:00 - - - - - - - - -
18.01.2018 17:00:00 - - - - - - - - -
18.01.2018 16:00:00 - - - - - - - - -
18.01.2018 15:00:00 - - - - - - - - -
18.01.2018 14:00:00 - - - - - - - - -
18.01.2018 13:00:00 - - - - - - - - -
18.01.2018 12:00:00 - - - - - - - - -
18.01.2018 11:00:00 - - - - - - - - -
18.01.2018 10:00:00 - - - - - - - - -
18.01.2018 09:00:00 - - - - - - - - -
18.01.2018 08:00:00 - - - - - - - - -
18.01.2018 07:00:00 - - - - - - - - -
18.01.2018 06:00:00 - - - - - - - - -
18.01.2018 05:00:00 - - - - - - - - -
18.01.2018 04:00:00 - - - - - - - - -
18.01.2018 03:00:00 - - - - - - - - -
18.01.2018 02:00:00 - - - - - - - - -
18.01.2018 01:00:00 - - - - - - - - -
18.01.2018 00:00:00 - - - - - - - - -
17.01.2018 23:00:00 - - - - - - - - -
17.01.2018 22:00:00 - - - - - - - - -
17.01.2018 21:00:00 - - - - - - - - -
17.01.2018 20:00:00 - - - - - - - - -
17.01.2018 19:00:00 - - - - - - - - -
17.01.2018 18:00:00 - - - - - - - - -
17.01.2018 17:00:00 - - - - - - - - -
17.01.2018 16:00:00 - - - - - - - - -
17.01.2018 15:00:00 - - - - - - - - -
17.01.2018 14:00:00 - - - - - - - - -
17.01.2018 13:00:00 - - - - - - - - -
17.01.2018 12:00:00 - - - - - - - - -
17.01.2018 11:00:00 - - - - - - - - -
17.01.2018 10:00:00 - - - - - - - - -
17.01.2018 09:00:00 - - - - - - - - -
17.01.2018 08:00:00 - - - - - - - - -

tt = Température de l'air
td = dewpoint
ff = Vitesse du vent
fx = gusts
dd = Direction du vent
ppp = reduced air pressure
rr = Quantités de précipitations

stations d'obs. à proximité